sensor_id;sensor_type;location;lat;lon;timestamp;P1;P2;P0
40947;PMS5003;49382;-25.924;28.194;2022-07-29T00:00:32;42;41;
40947;PMS5003;49382;-25.924;28.194;2022-07-29T00:02:57;46;45;
40947;PMS5003;49382;-25.924;28.194;2022-07-29T00:05:23;43;42;
40947;PMS5003;49382;-25.924;28.194;2022-07-29T00:07:49;49;49;
40947;PMS5003;49382;-25.924;28.194;2022-07-29T00:10:14;43;43;
40947;PMS5003;49382;-25.924;28.194;2022-07-29T00:12:40;42;42;
40947;PMS5003;49382;-25.924;28.194;2022-07-29T00:15:06;46;46;
40947;PMS5003;49382;-25.924;28.194;2022-07-29T00:17:31;42;42;
40947;PMS5003;49382;-25.924;28.194;2022-07-29T00:19:56;42;42;
40947;PMS5003;49382;-25.924;28.194;2022-07-29T00:22:22;42;40;
40947;PMS5003;49382;-25.924;28.194;2022-07-29T00:24:48;38;37;
40947;PMS5003;49382;-25.924;28.194;2022-07-29T00:27:13;44;43;
40947;PMS5003;49382;-25.924;28.194;2022-07-29T00:29:39;42;41;
40947;PMS5003;49382;-25.924;28.194;2022-07-29T00:32:05;51;50;
40947;PMS5003;49382;-25.924;28.194;2022-07-29T00:34:30;39;38;
40947;PMS5003;49382;-25.924;28.194;2022-07-29T00:36:56;41;41;
40947;PMS5003;49382;-25.924;28.194;2022-07-29T00:39:21;58;57;
40947;PMS5003;49382;-25.924;28.194;2022-07-29T00:41:46;50;50;
40947;PMS5003;49382;-25.924;28.194;2022-07-29T00:44:11;50;49;
40947;PMS5003;49382;-25.924;28.194;2022-07-29T00:46:37;59;58;
40947;PMS5003;49382;-25.924;28.194;2022-07-29T00:49:02;43;42;
40947;PMS5003;49382;-25.924;28.194;2022-07-29T00:51:28;39;37;
40947;PMS5003;49382;-25.924;28.194;2022-07-29T00:53:53;50;50;
40947;PMS5003;49382;-25.924;28.194;2022-07-29T00:56:19;49;48;
40947;PMS5003;49382;-25.924;28.194;2022-07-29T00:58:44;49;48;
40947;PMS5003;49382;-25.924;28.194;2022-07-29T01:01:09;53;53;
40947;PMS5003;49382;-25.924;28.194;2022-07-29T01:03:34;58;56;
40947;PMS5003;49382;-25.924;28.194;2022-07-29T01:06:00;58;58;
40947;PMS5003;49382;-25.924;28.194;2022-07-29T01:08:25;48;48;
40947;PMS5003;49382;-25.924;28.194;2022-07-29T01:10:51;47;47;
40947;PMS5003;49382;-25.924;28.194;2022-07-29T01:13:16;48;47;
40947;PMS5003;49382;-25.924;28.194;2022-07-29T01:15:43;48;48;
40947;PMS5003;49382;-25.924;28.194;2022-07-29T01:18:11;70;70;
40947;PMS5003;49382;-25.924;28.194;2022-07-29T01:20:36;42;42;
40947;PMS5003;49382;-25.924;28.194;2022-07-29T01:27:55;42;41;
40947;PMS5003;49382;-25.924;28.194;2022-07-29T01:30:15;37;37;
40947;PMS5003;49382;-25.924;28.194;2022-07-29T01:32:41;40;38;
40947;PMS5003;49382;-25.924;28.194;2022-07-29T01:35:08;50;49;
40947;PMS5003;49382;-25.924;28.194;2022-07-29T01:37:35;45;45;
40947;PMS5003;49382;-25.924;28.194;2022-07-29T01:39:58;60;60;
40947;PMS5003;49382;-25.924;28.194;2022-07-29T01:42:26;48;48;
40947;PMS5003;49382;-25.924;28.194;2022-07-29T01:44:50;37;37;
40947;PMS5003;49382;-25.924;28.194;2022-07-29T01:47:15;41;41;
40947;PMS5003;49382;-25.924;28.194;2022-07-29T01:49:40;53;53;
40947;PMS5003;49382;-25.924;28.194;2022-07-29T01:52:07;56;56;
40947;PMS5003;49382;-25.924;28.194;2022-07-29T01:54:32;33;32;
40947;PMS5003;49382;-25.924;28.194;2022-07-29T01:56:56;42;42;
40947;PMS5003;49382;-25.924;28.194;2022-07-29T01:59:20;50;49;
40947;PMS5003;49382;-25.924;28.194;2022-07-29T02:01:47;37;36;
40947;PMS5003;49382;-25.924;28.194;2022-07-29T02:04:11;38;38;
40947;PMS5003;49382;-25.924;28.194;2022-07-29T02:06:37;48;46;
40947;PMS5003;49382;-25.924;28.194;2022-07-29T02:09:02;39;39;
40947;PMS5003;49382;-25.924;28.194;2022-07-29T02:11:27;52;52;
40947;PMS5003;49382;-25.924;28.194;2022-07-29T02:13:54;40;39;
40947;PMS5003;49382;-25.924;28.194;2022-07-29T02:16:19;57;56;
40947;PMS5003;49382;-25.924;28.194;2022-07-29T02:18:44;47;46;
40947;PMS5003;49382;-25.924;28.194;2022-07-29T02:21:10;40;40;
40947;PMS5003;49382;-25.924;28.194;2022-07-29T02:23:36;39;38;
40947;PMS5003;49382;-25.924;28.194;2022-07-29T02:26:01;41;41;
40947;PMS5003;49382;-25.924;28.194;2022-07-29T02:28:27;46;45;
40947;PMS5003;49382;-25.924;28.194;2022-07-29T02:30:52;41;40;
40947;PMS5003;49382;-25.924;28.194;2022-07-29T02:33:17;39;39;
40947;PMS5003;49382;-25.924;28.194;2022-07-29T02:35:42;52;52;
40947;PMS5003;49382;-25.924;28.194;2022-07-29T02:38:08;39;38;
40947;PMS5003;49382;-25.924;28.194;2022-07-29T02:40:33;43;43;
40947;PMS5003;49382;-25.924;28.194;2022-07-29T02:42:59;40;40;
40947;PMS5003;49382;-25.924;28.194;2022-07-29T02:45:24;41;41;
40947;PMS5003;49382;-25.924;28.194;2022-07-29T02:47:50;40;40;
40947;PMS5003;49382;-25.924;28.194;2022-07-29T02:50:17;43;42;
40947;PMS5003;49382;-25.924;28.194;2022-07-29T02:52:42;44;43;
40947;PMS5003;49382;-25.924;28.194;2022-07-29T02:55:08;37;35;
40947;PMS5003;49382;-25.924;28.194;2022-07-29T02:57:33;45;44;
40947;PMS5003;49382;-25.924;28.194;2022-07-29T02:59:58;40;40;
40947;PMS5003;49382;-25.924;28.194;2022-07-29T03:02:23;37;37;
40947;PMS5003;49382;-25.924;28.194;2022-07-29T03:04:49;38;36;
40947;PMS5003;49382;-25.924;28.194;2022-07-29T03:07:15;39;39;
40947;PMS5003;49382;-25.924;28.194;2022-07-29T03:09:41;44;44;
40947;PMS5003;49382;-25.924;28.194;2022-07-29T03:12:05;46;46;
40947;PMS5003;49382;-25.924;28.194;2022-07-29T03:14:30;42;42;
40947;PMS5003;49382;-25.924;28.194;2022-07-29T03:16:56;45;45;
40947;PMS5003;49382;-25.924;28.194;2022-07-29T03:19:21;36;35;
40947;PMS5003;49382;-25.924;28.194;2022-07-29T03:21:47;36;36;
40947;PMS5003;49382;-25.924;28.194;2022-07-29T03:26:39;39;39;
40947;PMS5003;49382;-25.924;28.194;2022-07-29T03:29:05;35;35;
40947;PMS5003;49382;-25.924;28.194;2022-07-29T03:31:30;41;41;
40947;PMS5003;49382;-25.924;28.194;2022-07-29T03:33:55;42;41;
40947;PMS5003;49382;-25.924;28.194;2022-07-29T03:36:20;40;38;
40947;PMS5003;49382;-25.924;28.194;2022-07-29T03:38:46;39;39;
40947;PMS5003;49382;-25.924;28.194;2022-07-29T03:41:11;42;42;
40947;PMS5003;49382;-25.924;28.194;2022-07-29T03:43:38;41;41;
40947;PMS5003;49382;-25.924;28.194;2022-07-29T03:46:03;57;57;
40947;PMS5003;49382;-25.924;28.194;2022-07-29T03:48:28;36;35;
40947;PMS5003;49382;-25.924;28.194;2022-07-29T03:50:54;44;43;
40947;PMS5003;49382;-25.924;28.194;2022-07-29T03:53:20;40;40;
40947;PMS5003;49382;-25.924;28.194;2022-07-29T03:55:47;41;41;
40947;PMS5003;49382;-25.924;28.194;2022-07-29T03:58:11;38;38;
40947;PMS5003;49382;-25.924;28.194;2022-07-29T04:00:36;41;41;
40947;PMS5003;49382;-25.924;28.194;2022-07-29T04:03:02;35;35;
40947;PMS5003;49382;-25.924;28.194;2022-07-29T04:05:27;41;41;
40947;PMS5003;49382;-25.924;28.194;2022-07-29T04:07:53;37;36;
40947;PMS5003;49382;-25.924;28.194;2022-07-29T04:10:19;44;43;
40947;PMS5003;49382;-25.924;28.194;2022-07-29T04:12:44;38;37;
40947;PMS5003;49382;-25.924;28.194;2022-07-29T04:15:10;36;36;
40947;PMS5003;49382;-25.924;28.194;2022-07-29T04:17:35;38;37;
40947;PMS5003;49382;-25.924;28.194;2022-07-29T04:20:01;44;44;
40947;PMS5003;49382;-25.924;28.194;2022-07-29T04:22:26;38;38;
40947;PMS5003;49382;-25.924;28.194;2022-07-29T04:24:52;35;35;
40947;PMS5003;49382;-25.924;28.194;2022-07-29T04:27:18;58;57;
40947;PMS5003;49382;-25.924;28.194;2022-07-29T04:29:43;36;36;
40947;PMS5003;49382;-25.924;28.194;2022-07-29T04:32:09;40;39;
40947;PMS5003;49382;-25.924;28.194;2022-07-29T04:34:34;35;35;
40947;PMS5003;49382;-25.924;28.194;2022-07-29T04:37:00;50;50;
40947;PMS5003;49382;-25.924;28.194;2022-07-29T04:39:25;63;60;
40947;PMS5003;49382;-25.924;28.194;2022-07-29T04:41:50;36;36;
40947;PMS5003;49382;-25.924;28.194;2022-07-29T04:44:15;40;40;
40947;PMS5003;49382;-25.924;28.194;2022-07-29T04:46:41;49;49;
40947;PMS5003;49382;-25.924;28.194;2022-07-29T04:49:07;37;37;
40947;PMS5003;49382;-25.924;28.194;2022-07-29T04:51:32;39;38;
40947;PMS5003;49382;-25.924;28.194;2022-07-29T04:53:58;38;38;
40947;PMS5003;49382;-25.924;28.194;2022-07-29T04:56:23;38;38;
40947;PMS5003;49382;-25.924;28.194;2022-07-29T04:58:49;39;39;
40947;PMS5003;49382;-25.924;28.194;2022-07-29T05:01:14;38;38;
40947;PMS5003;49382;-25.924;28.194;2022-07-29T05:03:40;37;36;
40947;PMS5003;49382;-25.924;28.194;2022-07-29T05:06:05;50;50;
40947;PMS5003;49382;-25.924;28.194;2022-07-29T05:08:31;40;39;
40947;PMS5003;49382;-25.924;28.194;2022-07-29T05:10:57;36;36;
40947;PMS5003;49382;-25.924;28.194;2022-07-29T05:13:22;38;37;
40947;PMS5003;49382;-25.924;28.194;2022-07-29T05:15:47;36;36;
40947;PMS5003;49382;-25.924;28.194;2022-07-29T05:18:12;41;41;
40947;PMS5003;49382;-25.924;28.194;2022-07-29T05:20:38;35;35;
40947;PMS5003;49382;-25.924;28.194;2022-07-29T05:23:03;40;39;
40947;PMS5003;49382;-25.924;28.194;2022-07-29T05:25:28;66;66;
40947;PMS5003;49382;-25.924;28.194;2022-07-29T05:27:54;43;42;
40947;PMS5003;49382;-25.924;28.194;2022-07-29T05:30:19;38;38;
40947;PMS5003;49382;-25.924;28.194;2022-07-29T05:32:45;40;40;
40947;PMS5003;49382;-25.924;28.194;2022-07-29T05:35:11;49;48;
40947;PMS5003;49382;-25.924;28.194;2022-07-29T05:37:35;56;55;
40947;PMS5003;49382;-25.924;28.194;2022-07-29T05:40:01;46;45;
40947;PMS5003;49382;-25.924;28.194;2022-07-29T05:42:26;39;38;
40947;PMS5003;49382;-25.924;28.194;2022-07-29T05:44:52;37;37;
40947;PMS5003;49382;-25.924;28.194;2022-07-29T05:47:17;60;57;
40947;PMS5003;49382;-25.924;28.194;2022-07-29T05:49:42;74;74;
40947;PMS5003;49382;-25.924;28.194;2022-07-29T05:52:07;75;74;
40947;PMS5003;49382;-25.924;28.194;2022-07-29T05:54:33;77;76;
40947;PMS5003;49382;-25.924;28.194;2022-07-29T05:56:58;43;43;
40947;PMS5003;49382;-25.924;28.194;2022-07-29T05:59:23;46;46;
40947;PMS5003;49382;-25.924;28.194;2022-07-29T06:01:48;40;40;
40947;PMS5003;49382;-25.924;28.194;2022-07-29T06:04:13;37;36;
40947;PMS5003;49382;-25.924;28.194;2022-07-29T06:06:39;36;35;
40947;PMS5003;49382;-25.924;28.194;2022-07-29T06:09:05;37;37;
40947;PMS5003;49382;-25.924;28.194;2022-07-29T06:11:30;37;36;
40947;PMS5003;49382;-25.924;28.194;2022-07-29T06:13:55;39;39;
40947;PMS5003;49382;-25.924;28.194;2022-07-29T06:16:20;33;33;
40947;PMS5003;49382;-25.924;28.194;2022-07-29T06:18:46;35;34;
40947;PMS5003;49382;-25.924;28.194;2022-07-29T06:21:11;36;36;
40947;PMS5003;49382;-25.924;28.194;2022-07-29T06:23:37;36;36;
40947;PMS5003;49382;-25.924;28.194;2022-07-29T06:26:02;33;33;
40947;PMS5003;49382;-25.924;28.194;2022-07-29T06:28:28;35;35;
40947;PMS5003;49382;-25.924;28.194;2022-07-29T06:30:53;33;33;
40947;PMS5003;49382;-25.924;28.194;2022-07-29T06:33:18;34;34;
40947;PMS5003;49382;-25.924;28.194;2022-07-29T06:35:44;34;34;
40947;PMS5003;49382;-25.924;28.194;2022-07-29T06:38:09;34;33;
40947;PMS5003;49382;-25.924;28.194;2022-07-29T06:40:34;35;34;
40947;PMS5003;49382;-25.924;28.194;2022-07-29T06:43:00;32;32;
40947;PMS5003;49382;-25.924;28.194;2022-07-29T06:45:26;33;32;
40947;PMS5003;49382;-25.924;28.194;2022-07-29T06:47:51;40;39;
40947;PMS5003;49382;-25.924;28.194;2022-07-29T06:50:17;30;30;
40947;PMS5003;49382;-25.924;28.194;2022-07-29T06:52:42;34;33;
40947;PMS5003;49382;-25.924;28.194;2022-07-29T06:55:08;31;31;
40947;PMS5003;49382;-25.924;28.194;2022-07-29T06:57:33;30;30;
40947;PMS5003;49382;-25.924;28.194;2022-07-29T06:59:59;27;27;
40947;PMS5003;49382;-25.924;28.194;2022-07-29T07:02:24;31;31;
40947;PMS5003;49382;-25.924;28.194;2022-07-29T07:04:50;32;32;
40947;PMS5003;49382;-25.924;28.194;2022-07-29T07:07:15;29;28;
40947;PMS5003;49382;-25.924;28.194;2022-07-29T07:09:41;29;27;
40947;PMS5003;49382;-25.924;28.194;2022-07-29T07:12:06;29;29;
40947;PMS5003;49382;-25.924;28.194;2022-07-29T07:14:31;29;29;
40947;PMS5003;49382;-25.924;28.194;2022-07-29T07:16:56;28;28;
40947;PMS5003;49382;-25.924;28.194;2022-07-29T07:19:22;28;28;
40947;PMS5003;49382;-25.924;28.194;2022-07-29T07:21:48;28;28;
40947;PMS5003;49382;-25.924;28.194;2022-07-29T07:24:13;29;27;
40947;PMS5003;49382;-25.924;28.194;2022-07-29T07:26:39;26;26;
40947;PMS5003;49382;-25.924;28.194;2022-07-29T07:29:04;31;31;
40947;PMS5003;49382;-25.924;28.194;2022-07-29T07:31:30;24;24;
40947;PMS5003;49382;-25.924;28.194;2022-07-29T07:33:56;24;24;
40947;PMS5003;49382;-25.924;28.194;2022-07-29T07:36:22;28;27;
40947;PMS5003;49382;-25.924;28.194;2022-07-29T07:38:47;22;22;
40947;PMS5003;49382;-25.924;28.194;2022-07-29T07:41:13;25;25;
40947;PMS5003;49382;-25.924;28.194;2022-07-29T07:43:38;37;37;
40947;PMS5003;49382;-25.924;28.194;2022-07-29T07:46:04;48;48;
40947;PMS5003;49382;-25.924;28.194;2022-07-29T07:48:31;22;21;
40947;PMS5003;49382;-25.924;28.194;2022-07-29T07:50:55;23;23;
40947;PMS5003;49382;-25.924;28.194;2022-07-29T07:53:20;23;22;
40947;PMS5003;49382;-25.924;28.194;2022-07-29T07:55:46;22;22;
40947;PMS5003;49382;-25.924;28.194;2022-07-29T07:58:12;24;24;
40947;PMS5003;49382;-25.924;28.194;2022-07-29T08:00:37;22;21;
40947;PMS5003;49382;-25.924;28.194;2022-07-29T08:03:03;21;21;
40947;PMS5003;49382;-25.924;28.194;2022-07-29T08:05:29;26;25;
40947;PMS5003;49382;-25.924;28.194;2022-07-29T08:07:54;22;22;
40947;PMS5003;49382;-25.924;28.194;2022-07-29T08:10:20;23;23;
40947;PMS5003;49382;-25.924;28.194;2022-07-29T08:12:46;26;25;
40947;PMS5003;49382;-25.924;28.194;2022-07-29T08:15:11;22;22;
40947;PMS5003;49382;-25.924;28.194;2022-07-29T08:17:37;24;24;
40947;PMS5003;49382;-25.924;28.194;2022-07-29T08:20:03;22;22;
40947;PMS5003;49382;-25.924;28.194;2022-07-29T08:22:29;22;22;
40947;PMS5003;49382;-25.924;28.194;2022-07-29T08:24:54;23;23;
40947;PMS5003;49382;-25.924;28.194;2022-07-29T08:27:20;24;24;
40947;PMS5003;49382;-25.924;28.194;2022-07-29T08:29:46;21;20;
40947;PMS5003;49382;-25.924;28.194;2022-07-29T08:32:11;19;19;
40947;PMS5003;49382;-25.924;28.194;2022-07-29T08:34:37;20;20;
40947;PMS5003;49382;-25.924;28.194;2022-07-29T08:37:02;21;21;
40947;PMS5003;49382;-25.924;28.194;2022-07-29T08:39:28;21;21;
40947;PMS5003;49382;-25.924;28.194;2022-07-29T08:41:54;18;18;
40947;PMS5003;49382;-25.924;28.194;2022-07-29T08:44:19;19;19;
40947;PMS5003;49382;-25.924;28.194;2022-07-29T08:46:45;18;18;
40947;PMS5003;49382;-25.924;28.194;2022-07-29T08:49:11;17;17;
40947;PMS5003;49382;-25.924;28.194;2022-07-29T08:51:36;20;20;
40947;PMS5003;49382;-25.924;28.194;2022-07-29T08:54:02;23;22;
40947;PMS5003;49382;-25.924;28.194;2022-07-29T08:56:27;28;28;
40947;PMS5003;49382;-25.924;28.194;2022-07-29T08:58:53;31;31;
40947;PMS5003;49382;-25.924;28.194;2022-07-29T09:01:22;45;45;
40947;PMS5003;49382;-25.924;28.194;2022-07-29T09:03:45;39;38;
40947;PMS5003;49382;-25.924;28.194;2022-07-29T09:06:12;30;29;
40947;PMS5003;49382;-25.924;28.194;2022-07-29T09:08:36;29;28;
40947;PMS5003;49382;-25.924;28.194;2022-07-29T09:11:01;30;30;
40947;PMS5003;49382;-25.924;28.194;2022-07-29T09:13:27;26;26;
40947;PMS5003;49382;-25.924;28.194;2022-07-29T09:15:52;23;23;
40947;PMS5003;49382;-25.924;28.194;2022-07-29T09:20:46;28;27;
40947;PMS5003;49382;-25.924;28.194;2022-07-29T09:23:09;25;24;
40947;PMS5003;49382;-25.924;28.194;2022-07-29T09:25:34;100;100;
40947;PMS5003;49382;-25.924;28.194;2022-07-29T09:30:25;38;37;
40947;PMS5003;49382;-25.924;28.194;2022-07-29T09:32:54;36;36;
40947;PMS5003;49382;-25.924;28.194;2022-07-29T09:35:18;46;46;
40947;PMS5003;49382;-25.924;28.194;2022-07-29T09:37:42;47;47;
40947;PMS5003;49382;-25.924;28.194;2022-07-29T09:40:11;47;47;
40947;PMS5003;49382;-25.924;28.194;2022-07-29T09:42:33;41;41;
40947;PMS5003;49382;-25.924;28.194;2022-07-29T09:44:59;38;38;
40947;PMS5003;49382;-25.924;28.194;2022-07-29T09:47:25;47;46;
40947;PMS5003;49382;-25.924;28.194;2022-07-29T09:49:51;81;81;
40947;PMS5003;49382;-25.924;28.194;2022-07-29T09:52:15;48;48;
40947;PMS5003;49382;-25.924;28.194;2022-07-29T09:54:41;41;41;
40947;PMS5003;49382;-25.924;28.194;2022-07-29T09:57:07;49;49;
40947;PMS5003;49382;-25.924;28.194;2022-07-29T09:59:32;57;57;
40947;PMS5003;49382;-25.924;28.194;2022-07-29T10:01:58;70;70;
40947;PMS5003;49382;-25.924;28.194;2022-07-29T10:04:23;119;118;
40947;PMS5003;49382;-25.924;28.194;2022-07-29T10:09:14;120;120;
40947;PMS5003;49382;-25.924;28.194;2022-07-29T10:11:39;106;105;
40947;PMS5003;49382;-25.924;28.194;2022-07-29T10:14:05;67;67;
40947;PMS5003;49382;-25.924;28.194;2022-07-29T10:16:31;82;82;
40947;PMS5003;49382;-25.924;28.194;2022-07-29T10:18:56;97;96;
40947;PMS5003;49382;-25.924;28.194;2022-07-29T10:21:22;42;42;
40947;PMS5003;49382;-25.924;28.194;2022-07-29T10:23:47;18;18;
40947;PMS5003;49382;-25.924;28.194;2022-07-29T10:26:13;20;19;
40947;PMS5003;49382;-25.924;28.194;2022-07-29T10:28:38;18;18;
40947;PMS5003;49382;-25.924;28.194;2022-07-29T10:31:05;19;19;
40947;PMS5003;49382;-25.924;28.194;2022-07-29T10:33:34;16;16;
40947;PMS5003;49382;-25.924;28.194;2022-07-29T10:35:59;19;19;
40947;PMS5003;49382;-25.924;28.194;2022-07-29T10:40:45;15;15;
40947;PMS5003;49382;-25.924;28.194;2022-07-29T10:43:17;19;19;
40947;PMS5003;49382;-25.924;28.194;2022-07-29T10:45:35;18;18;
40947;PMS5003;49382;-25.924;28.194;2022-07-29T10:48:03;36;36;
40947;PMS5003;49382;-25.924;28.194;2022-07-29T10:50:25;21;21;
40947;PMS5003;49382;-25.924;28.194;2022-07-29T10:52:52;41;41;
40947;PMS5003;49382;-25.924;28.194;2022-07-29T10:57:42;29;29;
40947;PMS5003;49382;-25.924;28.194;2022-07-29T11:05:00;20;20;
40947;PMS5003;49382;-25.924;28.194;2022-07-29T11:07:22;24;23;
40947;PMS5003;49382;-25.924;28.194;2022-07-29T11:17:04;44;43;
40947;PMS5003;49382;-25.924;28.194;2022-07-29T11:19:31;51;51;
40947;PMS5003;49382;-25.924;28.194;2022-07-29T11:21:56;23;23;
40947;PMS5003;49382;-25.924;28.194;2022-07-29T11:24:22;23;22;
40947;PMS5003;49382;-25.924;28.194;2022-07-29T11:26:46;25;24;
40947;PMS5003;49382;-25.924;28.194;2022-07-29T11:29:17;23;22;
40947;PMS5003;49382;-25.924;28.194;2022-07-29T11:31:37;19;19;
40947;PMS5003;49382;-25.924;28.194;2022-07-29T11:36:26;18;18;
40947;PMS5003;49382;-25.924;28.194;2022-07-29T11:38:52;17;17;
40947;PMS5003;49382;-25.924;28.194;2022-07-29T11:41:21;21;21;
40947;PMS5003;49382;-25.924;28.194;2022-07-29T11:43:46;22;22;
40947;PMS5003;49382;-25.924;28.194;2022-07-29T11:46:08;29;29;
40947;PMS5003;49382;-25.924;28.194;2022-07-29T11:48:33;29;29;
40947;PMS5003;49382;-25.924;28.194;2022-07-29T11:50:59;28;28;
40947;PMS5003;49382;-25.924;28.194;2022-07-29T11:53:25;24;24;
40947;PMS5003;49382;-25.924;28.194;2022-07-29T11:55:50;25;24;
40947;PMS5003;49382;-25.924;28.194;2022-07-29T11:58:15;26;26;
40947;PMS5003;49382;-25.924;28.194;2022-07-29T12:00:40;24;24;
40947;PMS5003;49382;-25.924;28.194;2022-07-29T12:03:05;24;23;
40947;PMS5003;49382;-25.924;28.194;2022-07-29T12:05:32;20;20;
40947;PMS5003;49382;-25.924;28.194;2022-07-29T12:07:58;22;22;
40947;PMS5003;49382;-25.924;28.194;2022-07-29T12:10:21;25;25;
40947;PMS5003;49382;-25.924;28.194;2022-07-29T12:12:51;23;23;
40947;PMS5003;49382;-25.924;28.194;2022-07-29T12:15:13;28;28;
40947;PMS5003;49382;-25.924;28.194;2022-07-29T12:17:37;24;24;
40947;PMS5003;49382;-25.924;28.194;2022-07-29T12:20:03;27;27;
40947;PMS5003;49382;-25.924;28.194;2022-07-29T12:22:29;25;25;
40947;PMS5003;49382;-25.924;28.194;2022-07-29T12:24:54;26;25;
40947;PMS5003;49382;-25.924;28.194;2022-07-29T12:27:20;22;22;
40947;PMS5003;49382;-25.924;28.194;2022-07-29T12:29:45;21;21;
40947;PMS5003;49382;-25.924;28.194;2022-07-29T12:32:10;22;21;
40947;PMS5003;49382;-25.924;28.194;2022-07-29T12:34:35;23;23;
40947;PMS5003;49382;-25.924;28.194;2022-07-29T12:37:00;22;22;
40947;PMS5003;49382;-25.924;28.194;2022-07-29T12:39:25;27;26;
40947;PMS5003;49382;-25.924;28.194;2022-07-29T12:41:50;26;25;
40947;PMS5003;49382;-25.924;28.194;2022-07-29T12:44:16;24;24;
40947;PMS5003;49382;-25.924;28.194;2022-07-29T12:46:42;23;23;
40947;PMS5003;49382;-25.924;28.194;2022-07-29T12:49:07;23;22;
40947;PMS5003;49382;-25.924;28.194;2022-07-29T12:51:33;25;24;
40947;PMS5003;49382;-25.924;28.194;2022-07-29T12:56:24;22;22;
40947;PMS5003;49382;-25.924;28.194;2022-07-29T12:58:49;23;23;
40947;PMS5003;49382;-25.924;28.194;2022-07-29T13:01:15;31;30;
40947;PMS5003;49382;-25.924;28.194;2022-07-29T13:03:43;23;22;
40947;PMS5003;49382;-25.924;28.194;2022-07-29T13:06:06;24;23;
40947;PMS5003;49382;-25.924;28.194;2022-07-29T13:08:31;21;21;
40947;PMS5003;49382;-25.924;28.194;2022-07-29T13:10:56;23;23;
40947;PMS5003;49382;-25.924;28.194;2022-07-29T13:13:22;26;25;
40947;PMS5003;49382;-25.924;28.194;2022-07-29T13:15:53;26;26;
40947;PMS5003;49382;-25.924;28.194;2022-07-29T13:20:38;24;24;
40947;PMS5003;49382;-25.924;28.194;2022-07-29T13:23:03;25;25;
40947;PMS5003;49382;-25.924;28.194;2022-07-29T13:25:29;30;30;
40947;PMS5003;49382;-25.924;28.194;2022-07-29T13:27:53;26;25;
40947;PMS5003;49382;-25.924;28.194;2022-07-29T13:30:18;25;25;
40947;PMS5003;49382;-25.924;28.194;2022-07-29T13:32:44;25;25;
40947;PMS5003;49382;-25.924;28.194;2022-07-29T13:35:09;27;26;
40947;PMS5003;49382;-25.924;28.194;2022-07-29T13:37:35;27;27;
40947;PMS5003;49382;-25.924;28.194;2022-07-29T13:39:59;28;28;
40947;PMS5003;49382;-25.924;28.194;2022-07-29T13:42:25;28;28;
40947;PMS5003;49382;-25.924;28.194;2022-07-29T13:44:50;27;26;
40947;PMS5003;49382;-25.924;28.194;2022-07-29T13:47:15;29;28;
40947;PMS5003;49382;-25.924;28.194;2022-07-29T13:49:40;25;25;
40947;PMS5003;49382;-25.924;28.194;2022-07-29T13:52:05;25;25;
40947;PMS5003;49382;-25.924;28.194;2022-07-29T13:54:30;27;27;
40947;PMS5003;49382;-25.924;28.194;2022-07-29T13:56:55;30;30;
40947;PMS5003;49382;-25.924;28.194;2022-07-29T13:59:20;24;23;
40947;PMS5003;49382;-25.924;28.194;2022-07-29T14:01:45;27;27;
40947;PMS5003;49382;-25.924;28.194;2022-07-29T14:04:11;28;28;
40947;PMS5003;49382;-25.924;28.194;2022-07-29T14:06:37;29;29;
40947;PMS5003;49382;-25.924;28.194;2022-07-29T14:09:02;26;26;
40947;PMS5003;49382;-25.924;28.194;2022-07-29T14:11:27;28;28;
40947;PMS5003;49382;-25.924;28.194;2022-07-29T14:13:52;24;24;
40947;PMS5003;49382;-25.924;28.194;2022-07-29T14:16:17;23;23;
40947;PMS5003;49382;-25.924;28.194;2022-07-29T14:18:43;24;24;
40947;PMS5003;49382;-25.924;28.194;2022-07-29T14:21:07;23;22;
40947;PMS5003;49382;-25.924;28.194;2022-07-29T14:23:32;22;22;
40947;PMS5003;49382;-25.924;28.194;2022-07-29T14:25:58;20;20;
40947;PMS5003;49382;-25.924;28.194;2022-07-29T14:28:23;19;19;
40947;PMS5003;49382;-25.924;28.194;2022-07-29T14:30:48;22;22;
40947;PMS5003;49382;-25.924;28.194;2022-07-29T14:33:14;20;20;
40947;PMS5003;49382;-25.924;28.194;2022-07-29T14:35:39;21;21;
40947;PMS5003;49382;-25.924;28.194;2022-07-29T14:38:04;21;20;
40947;PMS5003;49382;-25.924;28.194;2022-07-29T14:40:29;22;22;
40947;PMS5003;49382;-25.924;28.194;2022-07-29T14:42:55;20;20;
40947;PMS5003;49382;-25.924;28.194;2022-07-29T14:45:20;22;22;
40947;PMS5003;49382;-25.924;28.194;2022-07-29T14:47:46;22;22;
40947;PMS5003;49382;-25.924;28.194;2022-07-29T14:50:12;21;21;
40947;PMS5003;49382;-25.924;28.194;2022-07-29T14:52:37;23;22;
40947;PMS5003;49382;-25.924;28.194;2022-07-29T14:55:02;22;22;
40947;PMS5003;49382;-25.924;28.194;2022-07-29T14:57:27;23;22;
40947;PMS5003;49382;-25.924;28.194;2022-07-29T14:59:52;24;24;
40947;PMS5003;49382;-25.924;28.194;2022-07-29T15:02:17;23;22;
40947;PMS5003;49382;-25.924;28.194;2022-07-29T15:04:42;21;21;
40947;PMS5003;49382;-25.924;28.194;2022-07-29T15:07:07;23;23;
40947;PMS5003;49382;-25.924;28.194;2022-07-29T15:09:32;23;22;
40947;PMS5003;49382;-25.924;28.194;2022-07-29T15:11:57;26;25;
40947;PMS5003;49382;-25.924;28.194;2022-07-29T15:14:23;23;23;
40947;PMS5003;49382;-25.924;28.194;2022-07-29T15:16:48;23;23;
40947;PMS5003;49382;-25.924;28.194;2022-07-29T15:19:13;24;23;
40947;PMS5003;49382;-25.924;28.194;2022-07-29T15:21:38;23;23;
40947;PMS5003;49382;-25.924;28.194;2022-07-29T15:24:04;23;23;
40947;PMS5003;49382;-25.924;28.194;2022-07-29T15:26:29;26;26;
40947;PMS5003;49382;-25.924;28.194;2022-07-29T15:28:54;24;24;
40947;PMS5003;49382;-25.924;28.194;2022-07-29T15:31:19;27;27;
40947;PMS5003;49382;-25.924;28.194;2022-07-29T15:33:44;24;24;
40947;PMS5003;49382;-25.924;28.194;2022-07-29T15:36:09;30;29;
40947;PMS5003;49382;-25.924;28.194;2022-07-29T15:38:35;29;29;
40947;PMS5003;49382;-25.924;28.194;2022-07-29T15:41:00;28;27;
40947;PMS5003;49382;-25.924;28.194;2022-07-29T15:43:26;29;29;
40947;PMS5003;49382;-25.924;28.194;2022-07-29T15:45:51;28;28;
40947;PMS5003;49382;-25.924;28.194;2022-07-29T15:48:17;30;30;
40947;PMS5003;49382;-25.924;28.194;2022-07-29T15:50:43;32;32;
40947;PMS5003;49382;-25.924;28.194;2022-07-29T15:53:08;36;35;
40947;PMS5003;49382;-25.924;28.194;2022-07-29T15:55:34;36;36;
40947;PMS5003;49382;-25.924;28.194;2022-07-29T15:58:00;36;35;
40947;PMS5003;49382;-25.924;28.194;2022-07-29T16:00:25;36;36;
40947;PMS5003;49382;-25.924;28.194;2022-07-29T16:02:50;33;33;
40947;PMS5003;49382;-25.924;28.194;2022-07-29T16:05:15;36;35;
40947;PMS5003;49382;-25.924;28.194;2022-07-29T16:07:40;31;30;
40947;PMS5003;49382;-25.924;28.194;2022-07-29T16:10:06;31;31;
40947;PMS5003;49382;-25.924;28.194;2022-07-29T16:12:31;33;31;